Dunbar, Kentucky
Current Conditions -  °F | °C
As of 11:53 AM on Thursday 27 Nov 2014 (Local Time) from KBWG Reporting Station
Overcast Overcast  
Wind Chill: 21°   Ceiling: 2000
Heat Index: 31°   Visibility: 10mi
Dew Point: 22°   Wind: 14mph
Humidity: 69%   Direction: 320°NW
Pressure: 30.42"   Gusts: 21mph
Location:  37.16°N, 86.76°W
Report Text: KBWG 271753Z AUTO 32012G18KT 10SM OVC020 M01/M06 A3042 RMK AO2 SLP307 T10061056 10017 21006 51019
Loading
Personal Weather Stations






























Interactive Weather Map New forecast layout! Learn more

10-Day Weather Forecast

Advertisements
Track Severe Weather on mobile